createdAt,value
2023-02-07T00:00:55.411Z,86.31
2023-02-07T00:01:56.369Z,86.31
2023-02-07T00:02:57.294Z,86.10
2023-02-07T00:03:58.148Z,85.89
2023-02-07T00:04:59.036Z,85.78
2023-02-07T00:05:59.937Z,85.68
2023-02-07T00:07:00.820Z,85.68
2023-02-07T00:08:01.705Z,85.68
2023-02-07T00:09:02.602Z,85.78
2023-02-07T00:10:03.473Z,85.89
2023-02-07T00:11:04.361Z,85.99
2023-02-07T00:12:05.230Z,85.99
2023-02-07T00:13:06.512Z,86.10
2023-02-07T00:14:06.849Z,85.99
2023-02-07T00:15:07.761Z,85.68
2023-02-07T00:16:08.657Z,85.25
2023-02-07T00:17:09.517Z,85.14
2023-02-07T00:18:10.398Z,85.04
2023-02-07T00:19:11.288Z,85.04
2023-02-07T00:20:12.172Z,84.72
2023-02-07T00:21:13.054Z,84.72
2023-02-07T00:22:13.941Z,84.44
2023-02-07T00:23:14.821Z,84.55
2023-02-07T00:24:15.752Z,84.66
2023-02-07T00:25:16.598Z,84.76
2023-02-07T00:26:17.493Z,84.86
2023-02-07T00:27:18.373Z,85.01
2023-02-07T00:28:19.328Z,85.22
2023-02-07T00:29:19.760Z,85.33
2023-02-07T00:30:20.701Z,85.54
2023-02-07T00:31:21.625Z,85.64
2023-02-07T00:32:22.030Z,85.64
2023-02-07T00:33:22.916Z,85.86
2023-02-07T00:34:23.811Z,86.07
2023-02-07T00:35:24.691Z,86.28
2023-02-07T00:36:25.584Z,86.39
2023-02-07T00:37:26.461Z,86.49
2023-02-07T00:38:27.351Z,86.49
2023-02-07T00:39:28.239Z,86.49
2023-02-07T00:40:29.113Z,86.39
2023-02-07T00:41:30.006Z,86.28
2023-02-07T00:42:30.881Z,86.07
2023-02-07T00:43:31.775Z,85.96
2023-02-07T00:44:32.671Z,86.07
2023-02-07T00:45:33.564Z,86.18
2023-02-07T00:46:34.440Z,86.07
2023-02-07T00:47:35.311Z,85.89
2023-02-07T00:48:36.202Z,85.89
2023-02-07T00:49:37.101Z,86.00
2023-02-07T00:50:37.985Z,86.43
2023-02-07T00:51:38.873Z,86.85
2023-02-07T00:52:39.758Z,87.38
2023-02-07T00:53:40.665Z,87.49
2023-02-07T00:54:41.536Z,87.49
2023-02-07T00:55:42.421Z,87.49
2023-02-07T00:56:43.313Z,87.49
2023-02-07T00:57:44.193Z,87.81
2023-02-07T00:58:45.083Z,87.91
2023-02-07T00:59:45.978Z,87.81
2023-02-07T01:00:46.895Z,87.70
2023-02-07T01:01:47.744Z,87.59
2023-02-07T01:02:48.633Z,87.70
2023-02-07T01:03:49.530Z,87.81
2023-02-07T01:04:50.425Z,87.49
2023-02-07T01:05:51.304Z,87.17
2023-02-07T01:06:52.189Z,86.85
2023-02-07T01:07:53.065Z,86.74
2023-02-07T01:08:53.953Z,86.64
2023-02-07T01:09:54.848Z,86.32
2023-02-07T01:10:55.733Z,86.00
2023-02-07T01:11:56.615Z,85.58
2023-02-07T01:12:57.500Z,85.36
2023-02-07T01:13:58.398Z,85.30
2023-02-07T01:14:59.276Z,85.30
2023-02-07T01:16:00.242Z,85.55
2023-02-07T01:17:01.102Z,85.66
2023-02-07T01:18:01.981Z,85.87
2023-02-07T01:19:02.849Z,86.29
2023-02-07T01:20:03.746Z,86.86
2023-02-07T01:21:04.630Z,87.29
2023-02-07T01:22:05.512Z,87.60
2023-02-07T01:23:06.403Z,87.71
2023-02-07T01:24:07.293Z,88.13
2023-02-07T01:25:08.174Z,88.24
2023-02-07T01:26:09.057Z,88.45
2023-02-07T01:27:09.951Z,88.45
2023-02-07T01:28:10.907Z,88.45
2023-02-07T01:29:11.733Z,88.45
2023-02-07T01:30:12.631Z,88.35
2023-02-07T01:31:13.630Z,88.35
2023-02-07T01:32:14.024Z,88.45
2023-02-07T01:33:14.925Z,88.45
2023-02-07T01:34:15.797Z,88.45
2023-02-07T01:35:16.688Z,88.45
2023-02-07T01:36:17.568Z,88.35
2023-02-07T01:37:18.459Z,88.24
2023-02-07T01:38:19.336Z,87.92
2023-02-07T01:39:20.219Z,87.50
2023-02-07T01:40:21.126Z,87.29
2023-02-07T01:41:22.006Z,87.14
2023-02-07T01:42:22.883Z,86.93
2023-02-07T01:43:23.771Z,86.72
2023-02-07T01:44:24.658Z,86.40
2023-02-07T01:45:25.538Z,86.22
2023-02-07T01:46:26.514Z,86.12
2023-02-07T01:47:27.372Z,86.01
2023-02-07T01:48:28.253Z,85.80
2023-02-07T01:49:29.142Z,85.69
2023-02-07T01:50:30.029Z,85.59
2023-02-07T01:51:30.925Z,85.69
2023-02-07T01:52:31.799Z,85.91
2023-02-07T01:53:32.685Z,85.69
2023-02-07T01:54:33.578Z,85.69
2023-02-07T01:55:34.462Z,85.91
2023-02-07T01:56:35.347Z,85.80
2023-02-07T01:57:36.234Z,85.80
2023-02-07T01:58:37.118Z,85.80
2023-02-07T01:59:38.010Z,85.80
2023-02-07T02:00:38.892Z,85.80
2023-02-07T02:01:39.874Z,85.80
2023-02-07T02:02:40.751Z,85.69
2023-02-07T02:03:41.611Z,85.59
2023-02-07T02:04:42.488Z,85.27
2023-02-07T02:05:43.386Z,84.95
2023-02-07T02:06:44.271Z,85.06
2023-02-07T02:07:45.155Z,85.16
2023-02-07T02:08:46.038Z,85.27
2023-02-07T02:09:46.905Z,85.41
2023-02-07T02:10:47.805Z,85.41
2023-02-07T02:11:48.754Z,85.63
2023-02-07T02:12:49.612Z,85.73
2023-02-07T02:13:50.498Z,85.73
2023-02-07T02:14:51.381Z,85.63
2023-02-07T02:15:52.292Z,85.52
2023-02-07T02:16:53.184Z,85.10
2023-02-07T02:17:54.041Z,85.10
2023-02-07T02:18:54.923Z,85.41
2023-02-07T02:19:55.816Z,85.88
2023-02-07T02:20:56.701Z,86.41
2023-02-07T02:21:57.587Z,86.94
2023-02-07T02:22:58.486Z,87.05
2023-02-07T02:23:59.367Z,86.72
2023-02-07T02:25:00.253Z,86.30
2023-02-07T02:26:01.147Z,86.30
2023-02-07T02:27:02.029Z,86.30
2023-02-07T02:28:02.960Z,86.30
2023-02-07T02:29:03.789Z,86.41
2023-02-07T02:30:04.671Z,86.62
2023-02-07T02:31:05.739Z,86.83
2023-02-07T02:32:06.104Z,86.83
2023-02-07T02:33:06.968Z,86.94
2023-02-07T02:34:07.855Z,86.94
2023-02-07T02:35:08.738Z,87.15
2023-02-07T02:36:09.638Z,87.37
2023-02-07T02:37:10.537Z,87.68
2023-02-07T02:38:11.415Z,87.79
2023-02-07T02:39:12.295Z,87.90
2023-02-07T02:40:13.185Z,87.90
2023-02-07T02:41:14.068Z,87.68
2023-02-07T02:42:14.955Z,87.58
2023-02-07T02:43:15.845Z,87.26
2023-02-07T02:44:16.722Z,86.94
2023-02-07T02:45:17.610Z,86.94
2023-02-07T02:46:18.537Z,86.94
2023-02-07T02:47:19.409Z,86.94
2023-02-07T02:48:20.276Z,87.05
2023-02-07T02:49:21.158Z,87.26
2023-02-07T02:50:22.049Z,87.15
2023-02-07T02:51:22.933Z,87.26
2023-02-07T02:52:23.815Z,87.26
2023-02-07T02:53:24.705Z,87.26
2023-02-07T02:54:25.577Z,87.15
2023-02-07T02:55:26.460Z,87.05
2023-02-07T02:56:27.366Z,86.94
2023-02-07T02:57:28.241Z,86.83
2023-02-07T02:58:29.137Z,86.62
2023-02-07T02:59:30.009Z,86.72
2023-02-07T03:00:30.891Z,86.72
2023-02-07T03:01:31.786Z,86.72
2023-02-07T03:02:32.692Z,86.83
2023-02-07T03:03:33.556Z,87.15
2023-02-07T03:04:34.449Z,87.62
2023-02-07T03:05:35.507Z,87.93
2023-02-07T03:06:35.903Z,88.04
2023-02-07T03:07:36.806Z,88.15
2023-02-07T03:08:37.690Z,88.15
2023-02-07T03:09:38.581Z,87.93
2023-02-07T03:10:39.454Z,87.73
2023-02-07T03:11:40.355Z,87.62
2023-02-07T03:12:41.241Z,87.62
2023-02-07T03:13:42.119Z,87.51
2023-02-07T03:14:43.005Z,87.51
2023-02-07T03:15:43.895Z,87.40
2023-02-07T03:16:44.790Z,87.40
2023-02-07T03:17:45.690Z,87.40
2023-02-07T03:18:46.563Z,87.40
2023-02-07T03:19:47.456Z,87.40
2023-02-07T03:20:48.324Z,87.51
2023-02-07T03:21:49.208Z,87.51
2023-02-07T03:22:50.096Z,87.73
2023-02-07T03:23:50.980Z,87.83
2023-02-07T03:24:51.875Z,87.83
2023-02-07T03:25:52.748Z,87.83
2023-02-07T03:26:53.640Z,87.73
2023-02-07T03:27:54.575Z,87.40
2023-02-07T03:28:55.409Z,87.30
2023-02-07T03:29:56.296Z,87.30
2023-02-07T03:30:57.230Z,87.19
2023-02-07T03:31:58.075Z,86.98
2023-02-07T03:32:58.977Z,86.49
2023-02-07T03:33:59.844Z,86.38
2023-02-07T03:35:00.722Z,86.59
2023-02-07T03:36:01.602Z,86.70
2023-02-07T03:37:02.513Z,86.80
2023-02-07T03:38:03.408Z,86.74
2023-02-07T03:39:04.308Z,86.95
2023-02-07T03:40:05.208Z,87.16
2023-02-07T03:41:06.116Z,87.38
2023-02-07T03:42:07.028Z,87.38
2023-02-07T03:43:07.925Z,87.38
2023-02-07T03:44:08.820Z,87.59
2023-02-07T03:45:09.700Z,87.91
2023-02-07T03:46:10.668Z,88.16
2023-02-07T03:47:11.549Z,88.69
2023-02-07T03:48:12.459Z,88.80
2023-02-07T03:49:13.340Z,88.69
2023-02-07T03:50:14.237Z,88.69
2023-02-07T03:51:15.131Z,88.59
2023-02-07T03:52:16.038Z,88.69
2023-02-07T03:53:16.947Z,88.69
2023-02-07T03:54:17.845Z,88.80
2023-02-07T03:55:18.739Z,88.76
2023-02-07T03:56:19.665Z,88.55
2023-02-07T03:57:20.544Z,88.44
2023-02-07T03:58:21.431Z,88.16
2023-02-07T03:59:22.323Z,87.59
2023-02-07T04:00:23.202Z,87.31
2023-02-07T04:01:24.089Z,87.20
2023-02-07T04:02:25.062Z,87.10
2023-02-07T04:03:25.930Z,86.99
2023-02-07T04:04:26.803Z,86.99
2023-02-07T04:05:27.700Z,87.10
2023-02-07T04:06:28.599Z,87.20
2023-02-07T04:07:29.505Z,87.41
2023-02-07T04:08:30.416Z,87.63
2023-02-07T04:09:31.315Z,87.73
2023-02-07T04:10:32.201Z,87.84
2023-02-07T04:11:33.112Z,87.84
2023-02-07T04:12:34.023Z,87.63
2023-02-07T04:13:34.880Z,87.46
2023-02-07T04:14:35.767Z,87.35
2023-02-07T04:15:36.933Z,87.24
2023-02-07T04:16:37.518Z,87.46
2023-02-07T04:17:38.378Z,87.77
2023-02-07T04:18:39.279Z,88.09
2023-02-07T04:19:40.146Z,88.20
2023-02-07T04:20:41.024Z,88.09
2023-02-07T04:21:41.912Z,87.99
2023-02-07T04:22:42.807Z,87.88
2023-02-07T04:23:43.690Z,87.88
2023-02-07T04:24:44.561Z,87.88
2023-02-07T04:25:45.453Z,87.56
2023-02-07T04:26:46.327Z,87.13
2023-02-07T04:27:47.276Z,86.82
2023-02-07T04:28:48.143Z,86.60
2023-02-07T04:29:49.031Z,86.71
2023-02-07T04:30:49.936Z,86.82
2023-02-07T04:31:50.833Z,86.82
2023-02-07T04:32:51.697Z,86.75
2023-02-07T04:33:52.604Z,86.85
2023-02-07T04:34:53.476Z,86.85
2023-02-07T04:35:54.342Z,86.96
2023-02-07T04:36:55.226Z,87.18
2023-02-07T04:37:56.122Z,87.43
2023-02-07T04:38:57.010Z,87.64
2023-02-07T04:39:57.886Z,87.74
2023-02-07T04:40:58.781Z,87.85
2023-02-07T04:41:59.667Z,88.17
2023-02-07T04:43:00.562Z,88.81
2023-02-07T04:44:01.438Z,89.24
2023-02-07T04:45:02.331Z,89.45
2023-02-07T04:46:03.265Z,89.88
2023-02-07T04:47:04.104Z,90.05
2023-02-07T04:48:05.045Z,90.16
2023-02-07T04:49:05.906Z,90.37
2023-02-07T04:50:06.811Z,90.80
2023-02-07T04:51:07.702Z,90.91
2023-02-07T04:52:08.758Z,90.48
2023-02-07T04:53:09.076Z,90.48
2023-02-07T04:54:09.959Z,90.58
2023-02-07T04:55:10.996Z,90.26
2023-02-07T04:56:11.878Z,90.16
2023-02-07T04:57:12.738Z,90.26
2023-02-07T04:58:13.617Z,90.16
2023-02-07T04:59:14.489Z,89.84
2023-02-07T05:00:15.379Z,89.31
2023-02-07T05:01:16.391Z,89.09
2023-02-07T05:02:17.210Z,88.88
2023-02-07T05:03:18.114Z,88.45
2023-02-07T05:04:19.058Z,88.13
2023-02-07T05:05:19.920Z,87.60
2023-02-07T05:06:20.798Z,87.07
2023-02-07T05:07:21.680Z,87.10
2023-02-07T05:08:22.959Z,87.43
2023-02-07T05:09:23.253Z,87.74
2023-02-07T05:10:24.143Z,88.28
2023-02-07T05:11:25.022Z,89.03
2023-02-07T05:12:25.916Z,89.67
2023-02-07T05:13:26.823Z,90.20
2023-02-07T05:14:27.725Z,90.05
2023-02-07T05:15:28.615Z,89.56
2023-02-07T05:16:29.536Z,89.52
2023-02-07T05:17:30.384Z,89.73
2023-02-07T05:18:31.289Z,89.95
2023-02-07T05:19:32.196Z,90.37
2023-02-07T05:20:33.077Z,90.55
2023-02-07T05:21:33.940Z,90.86
2023-02-07T05:22:34.826Z,90.65
2023-02-07T05:23:35.720Z,90.01
2023-02-07T05:24:36.606Z,90.01
2023-02-07T05:25:38.453Z,90.01
2023-02-07T05:26:40.358Z,89.90
2023-02-07T05:27:39.300Z,89.26
2023-02-07T05:28:40.197Z,88.52
2023-02-07T05:29:41.080Z,87.99
2023-02-07T05:30:42.049Z,87.52
2023-02-07T05:31:43.065Z,87.13
2023-02-07T05:32:43.453Z,86.92
2023-02-07T05:33:44.354Z,87.03
2023-02-07T05:34:45.259Z,86.82
2023-02-07T05:35:46.108Z,86.71
2023-02-07T05:36:46.998Z,86.39
2023-02-07T05:37:47.877Z,86.18
2023-02-07T05:38:48.782Z,86.18
2023-02-07T05:39:49.668Z,86.29
2023-02-07T05:40:50.558Z,86.49
2023-02-07T05:41:51.437Z,86.71
2023-02-07T05:42:52.337Z,86.96
2023-02-07T05:43:53.237Z,87.18
2023-02-07T05:44:54.126Z,87.38
2023-02-07T05:45:55.034Z,87.81
2023-02-07T05:46:55.958Z,88.13
2023-02-07T05:47:56.835Z,88.13
2023-02-07T05:48:57.795Z,88.02
2023-02-07T05:49:58.705Z,88.02
2023-02-07T05:50:59.562Z,87.81
2023-02-07T05:52:00.446Z,87.81
2023-02-07T05:53:01.330Z,88.45
2023-02-07T05:54:02.223Z,88.81
2023-02-07T05:55:03.128Z,89.24
2023-02-07T05:56:04.009Z,89.45
2023-02-07T05:57:04.885Z,89.77
2023-02-07T05:58:05.778Z,89.98
2023-02-07T05:59:06.667Z,89.98
2023-02-07T06:00:07.552Z,90.20
2023-02-07T06:01:08.435Z,90.41
2023-02-07T06:02:09.393Z,90.41
2023-02-07T06:03:10.273Z,90.41
2023-02-07T06:04:11.136Z,90.62
2023-02-07T06:05:11.976Z,90.41
2023-02-07T06:06:12.826Z,90.09
2023-02-07T06:07:13.707Z,89.84
2023-02-07T06:08:14.556Z,89.62
2023-02-07T06:09:15.440Z,89.41
2023-02-07T06:10:16.326Z,89.09
2023-02-07T06:11:17.217Z,88.67
2023-02-07T06:12:18.042Z,88.24
2023-02-07T06:13:18.926Z,88.13
2023-02-07T06:14:19.774Z,88.24
2023-02-07T06:15:20.608Z,88.39
2023-02-07T06:16:21.447Z,88.49
2023-02-07T06:17:22.278Z,88.67
2023-02-07T06:18:23.104Z,88.67
2023-02-07T06:19:23.939Z,88.77
2023-02-07T06:20:24.787Z,88.56
2023-02-07T06:21:34.709Z,88.45
2023-02-07T06:22:27.316Z,88.35
2023-02-07T06:23:27.153Z,88.02
2023-02-07T06:24:27.980Z,87.74
2023-02-07T06:25:28.825Z,87.74
2023-02-07T06:26:29.646Z,87.74
2023-02-07T06:27:30.472Z,87.85
2023-02-07T06:28:31.304Z,88.17
2023-02-07T06:29:32.146Z,88.17
2023-02-07T06:30:33.028Z,88.17
2023-02-07T06:31:33.922Z,88.39
2023-02-07T06:32:34.717Z,88.60
2023-02-07T06:33:35.614Z,88.71
2023-02-07T06:34:36.472Z,88.81
2023-02-07T06:35:37.692Z,88.60
2023-02-07T06:36:38.193Z,88.39
2023-02-07T06:37:39.014Z,88.49
2023-02-07T06:38:39.863Z,88.60
2023-02-07T06:39:40.710Z,88.81
2023-02-07T06:40:41.536Z,88.92
2023-02-07T06:41:42.379Z,89.03
2023-02-07T06:42:43.193Z,89.24
2023-02-07T06:43:44.026Z,89.24
2023-02-07T06:44:44.867Z,89.13
2023-02-07T06:45:45.698Z,88.81
2023-02-07T06:46:46.529Z,88.81
2023-02-07T06:47:47.359Z,88.60
2023-02-07T06:48:48.191Z,88.56
2023-02-07T06:49:49.033Z,88.45
2023-02-07T06:50:49.880Z,88.35
2023-02-07T06:51:50.693Z,88.13
2023-02-07T06:52:51.525Z,87.92
2023-02-07T06:53:52.352Z,88.02
2023-02-07T06:54:53.195Z,88.13
2023-02-07T06:55:54.022Z,88.35
2023-02-07T06:56:54.855Z,88.35
2023-02-07T06:57:55.697Z,88.56
2023-02-07T06:58:56.517Z,88.56
2023-02-07T06:59:57.356Z,88.24
2023-02-07T07:00:58.194Z,87.60
2023-02-07T07:01:59.034Z,87.38
2023-02-07T07:02:59.879Z,87.38
2023-02-07T07:04:00.679Z,87.38
2023-02-07T07:05:01.539Z,87.18
2023-02-07T07:06:02.374Z,86.96
2023-02-07T07:07:03.184Z,87.07
2023-02-07T07:08:03.992Z,87.07
2023-02-07T07:09:04.841Z,87.10
2023-02-07T07:10:05.727Z,87.32
2023-02-07T07:11:06.515Z,87.64
2023-02-07T07:12:07.344Z,87.96
2023-02-07T07:13:08.166Z,88.28
2023-02-07T07:14:08.999Z,88.60
2023-02-07T07:15:09.847Z,88.81
2023-02-07T07:16:10.790Z,88.92
2023-02-07T07:17:11.583Z,88.81
2023-02-07T07:18:12.406Z,88.81
2023-02-07T07:19:13.227Z,88.81
2023-02-07T07:20:14.175Z,88.71
2023-02-07T07:21:15.020Z,88.49
2023-02-07T07:22:15.831Z,88.28
2023-02-07T07:23:16.660Z,88.07
2023-02-07T07:24:17.489Z,87.96
2023-02-07T07:25:18.329Z,87.96
2023-02-07T07:26:19.153Z,88.07
2023-02-07T07:27:19.983Z,88.28
2023-02-07T07:28:20.930Z,88.39
2023-02-07T07:29:21.717Z,88.17
2023-02-07T07:30:22.562Z,88.49
2023-02-07T07:31:23.412Z,88.81
2023-02-07T07:32:33.620Z,89.24
2023-02-07T07:33:25.928Z,89.56
2023-02-07T07:34:25.755Z,89.52
2023-02-07T07:35:26.585Z,89.52
2023-02-07T07:36:27.439Z,89.41
2023-02-07T07:37:28.239Z,89.31
2023-02-07T07:38:29.072Z,89.31
2023-02-07T07:39:29.900Z,89.20
2023-02-07T07:40:30.736Z,88.45
2023-02-07T07:41:31.558Z,87.81
2023-02-07T07:42:32.387Z,87.49
2023-02-07T07:43:33.208Z,87.49
2023-02-07T07:44:34.041Z,87.49
2023-02-07T07:45:34.895Z,87.49
2023-02-07T07:46:35.777Z,87.49
2023-02-07T07:47:36.562Z,87.49
2023-02-07T07:48:37.425Z,87.60
2023-02-07T07:49:38.218Z,87.71
2023-02-07T07:50:39.299Z,87.60
2023-02-07T07:51:39.712Z,87.60
2023-02-07T07:52:40.530Z,87.71
2023-02-07T07:53:41.346Z,87.81
2023-02-07T07:54:42.182Z,87.92
2023-02-07T07:55:43.020Z,87.81
2023-02-07T07:56:43.846Z,87.71
2023-02-07T07:57:44.684Z,87.60
2023-02-07T07:58:45.510Z,87.38
2023-02-07T07:59:46.345Z,87.49
2023-02-07T08:00:47.234Z,87.49
2023-02-07T08:01:48.044Z,87.60
2023-02-07T08:02:48.872Z,87.88
2023-02-07T08:03:49.735Z,87.99
2023-02-07T08:04:50.522Z,87.88
2023-02-07T08:05:51.369Z,87.77
2023-02-07T08:06:52.213Z,88.09
2023-02-07T08:07:53.027Z,88.63
2023-02-07T08:08:53.857Z,88.52
2023-02-07T08:09:54.696Z,88.73
2023-02-07T08:10:55.567Z,89.23
2023-02-07T08:11:56.364Z,89.12
2023-02-07T08:12:57.247Z,89.01
2023-02-07T08:13:58.058Z,88.80
2023-02-07T08:14:58.884Z,88.65
2023-02-07T08:15:59.788Z,88.44
2023-02-07T08:17:00.616Z,88.12
2023-02-07T08:18:01.453Z,87.59
2023-02-07T08:19:02.417Z,87.16
2023-02-07T08:20:03.179Z,87.27
2023-02-07T08:21:04.207Z,87.59
2023-02-07T08:22:04.990Z,87.70
2023-02-07T08:23:05.911Z,87.23
2023-02-07T08:24:06.745Z,87.12
2023-02-07T08:25:07.561Z,87.34
2023-02-07T08:26:08.401Z,87.76
2023-02-07T08:27:09.244Z,87.98
2023-02-07T08:28:10.100Z,87.66
2023-02-07T08:29:10.896Z,87.55
2023-02-07T08:30:11.723Z,87.40
2023-02-07T08:31:12.674Z,87.40
2023-02-07T08:32:13.473Z,87.51
2023-02-07T08:33:14.304Z,87.51
2023-02-07T08:34:15.138Z,87.40
2023-02-07T08:35:15.984Z,87.15
2023-02-07T08:36:16.844Z,86.72
2023-02-07T08:37:17.685Z,86.52
2023-02-07T08:38:18.498Z,86.30
2023-02-07T08:39:19.321Z,86.09
2023-02-07T08:40:20.154Z,86.19
2023-02-07T08:41:20.991Z,86.16
2023-02-07T08:42:21.822Z,86.05
2023-02-07T08:43:22.657Z,86.16
2023-02-07T08:44:23.493Z,85.80
2023-02-07T08:45:24.421Z,85.91
2023-02-07T08:46:25.393Z,86.19
2023-02-07T08:47:26.187Z,86.36
2023-02-07T08:48:27.007Z,86.00
2023-02-07T08:49:27.855Z,85.96
2023-02-07T08:50:28.716Z,85.08
2023-02-07T08:51:29.558Z,83.98
2023-02-07T08:52:30.397Z,82.78
2023-02-07T08:53:31.209Z,82.14
2023-02-07T08:54:32.038Z,80.77
2023-02-07T08:55:32.865Z,80.52
2023-02-07T08:56:33.701Z,80.52
2023-02-07T08:57:34.520Z,80.20
2023-02-07T08:58:35.351Z,81.15
2023-02-07T08:59:36.184Z,80.80
2023-02-07T09:00:37.504Z,80.69
2023-02-07T09:01:37.693Z,80.87
2023-02-07T09:02:38.642Z,80.55
2023-02-07T09:03:39.445Z,79.39
2023-02-07T09:04:40.275Z,78.54
2023-02-07T09:05:41.112Z,78.97
2023-02-07T09:06:41.958Z,79.28
2023-02-07T09:07:42.801Z,80.09
2023-02-07T09:08:43.634Z,79.88
2023-02-07T09:09:44.447Z,79.57
2023-02-07T09:10:47.474Z,79.00
2023-02-07T09:11:45.981Z,78.26
2023-02-07T09:12:46.758Z,77.94
2023-02-07T09:13:47.585Z,78.47
2023-02-07T09:14:48.417Z,77.42
2023-02-07T09:15:49.262Z,76.89
2023-02-07T09:16:50.172Z,76.46
2023-02-07T09:17:50.968Z,76.89
2023-02-07T09:18:51.793Z,75.94
2023-02-07T09:19:52.723Z,76.78
2023-02-07T09:20:53.493Z,77.00
2023-02-07T09:21:54.320Z,77.31
2023-02-07T09:22:55.171Z,77.42
2023-02-07T09:23:55.972Z,77.31
2023-02-07T09:24:56.801Z,77.00
2023-02-07T09:25:57.625Z,76.89
2023-02-07T09:26:58.468Z,76.57
2023-02-07T09:27:59.308Z,76.46
2023-02-07T09:29:00.119Z,76.46
2023-02-07T09:30:00.940Z,76.78
2023-02-07T09:31:04.522Z,77.00
2023-02-07T09:32:02.613Z,76.86
2023-02-07T09:33:03.428Z,76.32
2023-02-07T09:34:04.251Z,76.32
2023-02-07T09:35:05.079Z,76.43
2023-02-07T09:36:05.918Z,76.32
2023-02-07T09:37:06.769Z,76.12
2023-02-07T09:38:07.625Z,76.32
2023-02-07T09:39:08.411Z,76.75
2023-02-07T09:40:09.239Z,76.72
2023-02-07T09:41:10.069Z,77.03
2023-02-07T09:42:10.899Z,77.03
2023-02-07T09:43:11.912Z,76.72
2023-02-07T09:44:12.468Z,76.78
2023-02-07T09:45:13.048Z,76.46
2023-02-07T09:46:13.542Z,75.62
2023-02-07T09:47:14.348Z,74.88
2023-02-07T09:48:15.181Z,74.85
2023-02-07T09:49:16.012Z,74.85
2023-02-07T09:50:16.833Z,74.32
2023-02-07T09:51:17.741Z,72.96
2023-02-07T09:52:18.615Z,72.29
2023-02-07T09:53:19.429Z,72.08
2023-02-07T09:54:20.236Z,71.34
2023-02-07T09:55:21.060Z,71.97
2023-02-07T09:56:21.881Z,71.31
2023-02-07T09:57:22.738Z,70.57
2023-02-07T09:58:23.701Z,70.47
2023-02-07T09:59:24.629Z,71.10
2023-02-07T10:00:25.506Z,71.31
2023-02-07T10:01:26.302Z,71.52
2023-02-07T10:02:27.160Z,70.25
2023-02-07T10:03:27.953Z,69.52
2023-02-07T10:04:28.785Z,69.59
2023-02-07T10:05:29.614Z,69.80
2023-02-07T10:06:30.435Z,70.54
2023-02-07T10:07:31.274Z,69.59
2023-02-07T10:08:40.697Z,69.56
2023-02-07T10:09:33.846Z,69.77
2023-02-07T10:10:33.676Z,69.67
2023-02-07T10:11:34.588Z,69.64
2023-02-07T10:12:35.386Z,69.32
2023-02-07T10:13:36.215Z,67.95
2023-02-07T10:14:37.033Z,68.16
2023-02-07T10:15:37.875Z,68.55
2023-02-07T10:16:38.683Z,68.34
2023-02-07T10:17:39.522Z,68.34
2023-02-07T10:18:40.344Z,67.60
2023-02-07T10:19:41.182Z,67.60
2023-02-07T10:20:42.104Z,67.40
2023-02-07T10:21:42.909Z,67.15
2023-02-07T10:22:43.742Z,66.73
2023-02-07T10:23:44.588Z,66.52
2023-02-07T10:24:45.425Z,66.20
2023-02-07T10:25:46.217Z,66.52
2023-02-07T10:26:47.048Z,66.42
2023-02-07T10:27:47.942Z,66.84
2023-02-07T10:28:48.744Z,67.44
2023-02-07T10:29:49.565Z,67.12
2023-02-07T10:30:50.539Z,67.02
2023-02-07T10:31:51.419Z,67.23
2023-02-07T10:32:52.225Z,67.09
2023-02-07T10:33:53.066Z,67.09
2023-02-07T10:34:53.890Z,66.56
2023-02-07T10:35:54.718Z,64.99
2023-02-07T10:36:55.541Z,64.57
2023-02-07T10:37:56.413Z,64.78
2023-02-07T10:39:08.296Z,64.68
2023-02-07T10:39:58.939Z,64.89
2023-02-07T10:40:58.769Z,64.57
2023-02-07T10:41:59.599Z,64.68
2023-02-07T10:43:00.507Z,63.84
2023-02-07T10:44:01.303Z,64.47
2023-02-07T10:45:02.143Z,65.07
2023-02-07T10:46:06.412Z,64.43
2023-02-07T10:47:03.958Z,63.60
2023-02-07T10:48:04.779Z,63.49
2023-02-07T10:49:05.600Z,63.60
2023-02-07T10:50:06.434Z,63.46
2023-02-07T10:51:07.260Z,63.99
2023-02-07T10:52:08.093Z,63.67
2023-02-07T10:53:08.928Z,63.75
2023-02-07T10:54:09.792Z,63.54
2023-02-07T10:55:10.611Z,64.80
2023-02-07T10:56:11.587Z,64.38
2023-02-07T10:57:12.364Z,64.06
2023-02-07T10:58:22.477Z,63.54
2023-02-07T10:59:14.931Z,63.23
2023-02-07T11:00:14.763Z,62.91
2023-02-07T11:01:15.616Z,62.77
2023-02-07T11:02:16.448Z,62.88
2023-02-07T11:03:17.290Z,62.77
2023-02-07T11:04:18.131Z,62.88
2023-02-07T11:05:18.959Z,63.48
2023-02-07T11:06:19.790Z,63.17
2023-02-07T11:07:20.619Z,62.43
2023-02-07T11:08:21.459Z,62.85
2023-02-07T11:09:22.315Z,62.93
2023-02-07T11:10:23.116Z,63.98
2023-02-07T11:11:23.939Z,63.45
2023-02-07T11:12:24.766Z,63.77
2023-02-07T11:13:27.271Z,63.04
2023-02-07T11:14:26.198Z,62.93
2023-02-07T11:15:27.027Z,61.88
2023-02-07T11:16:27.910Z,62.30
2023-02-07T11:17:28.735Z,62.93
2023-02-07T11:18:29.546Z,62.30
2023-02-07T11:19:30.385Z,61.91
2023-02-07T11:20:31.206Z,62.72
2023-02-07T11:21:32.038Z,61.99
2023-02-07T11:22:32.862Z,62.93
2023-02-07T11:23:33.853Z,62.62
2023-02-07T11:24:34.200Z,63.24
2023-02-07T11:25:35.007Z,62.62
2023-02-07T11:26:35.849Z,62.30
2023-02-07T11:27:36.658Z,63.24
2023-02-07T11:28:37.516Z,63.67
2023-02-07T11:29:38.354Z,62.19
2023-02-07T11:30:39.222Z,60.60
2023-02-07T11:31:40.002Z,60.81
2023-02-07T11:32:40.829Z,61.02
2023-02-07T11:33:41.661Z,62.07
2023-02-07T11:34:42.494Z,62.07
2023-02-07T11:35:43.355Z,61.72
2023-02-07T11:36:44.146Z,62.56
2023-02-07T11:37:45.006Z,61.93
2023-02-07T11:38:45.815Z,61.90
2023-02-07T11:39:46.672Z,60.75
2023-02-07T11:40:47.466Z,60.33
2023-02-07T11:41:48.295Z,60.44
2023-02-07T11:42:49.123Z,61.07
2023-02-07T11:43:49.962Z,60.75
2023-02-07T11:44:50.787Z,59.78
2023-02-07T11:45:51.608Z,59.89
2023-02-07T11:46:52.464Z,59.89
2023-02-07T11:47:53.257Z,59.58
2023-02-07T11:48:54.094Z,59.47
2023-02-07T11:49:54.925Z,59.37
2023-02-07T11:50:55.772Z,60.10
2023-02-07T11:51:56.603Z,59.78
2023-02-07T11:52:57.445Z,58.64
2023-02-07T11:53:58.282Z,57.28
2023-02-07T11:54:59.140Z,55.71
2023-02-07T11:55:59.939Z,56.02
2023-02-07T11:57:00.766Z,57.48
2023-02-07T11:58:01.585Z,56.44
2023-02-07T11:59:02.430Z,57.38
2023-02-07T12:00:03.292Z,58.11
2023-02-07T12:01:04.085Z,58.71
2023-02-07T12:02:04.927Z,58.81
2023-02-07T12:03:05.747Z,58.50
2023-02-07T12:04:06.585Z,59.44
2023-02-07T12:05:07.509Z,60.07
2023-02-07T12:06:08.296Z,59.83
2023-02-07T12:07:09.124Z,59.94
2023-02-07T12:08:09.966Z,59.42
2023-02-07T12:09:10.830Z,59.63
2023-02-07T12:10:11.675Z,59.31
2023-02-07T12:11:12.489Z,59.31
2023-02-07T12:12:13.401Z,59.83
2023-02-07T12:13:14.168Z,59.52
2023-02-07T12:14:14.998Z,59.00
2023-02-07T12:15:15.828Z,60.15
2023-02-07T12:16:16.697Z,59.52
2023-02-07T12:17:17.493Z,59.42
2023-02-07T12:18:18.322Z,59.21
2023-02-07T12:19:19.169Z,59.10
2023-02-07T12:20:20.040Z,59.70
2023-02-07T12:21:20.869Z,59.31
2023-02-07T12:22:21.656Z,58.97
2023-02-07T12:23:41.198Z,59.08
2023-02-07T12:24:24.216Z,58.76
2023-02-07T12:25:24.065Z,59.18
2023-02-07T12:26:24.877Z,58.87
2023-02-07T12:27:25.693Z,59.49
2023-02-07T12:28:26.522Z,59.18
2023-02-07T12:29:27.367Z,59.70
2023-02-07T12:30:28.195Z,60.22
2023-02-07T12:31:29.110Z,60.43
2023-02-07T12:32:29.998Z,60.33
2023-02-07T12:33:30.835Z,59.81
2023-02-07T12:34:31.661Z,60.12
2023-02-07T12:35:32.488Z,59.91
2023-02-07T12:36:33.324Z,60.02
2023-02-07T12:37:34.144Z,59.91
2023-02-07T12:38:34.974Z,60.33
2023-02-07T12:39:35.813Z,60.33
2023-02-07T12:40:36.655Z,60.33
2023-02-07T12:41:37.469Z,59.39
2023-02-07T12:42:38.304Z,59.91
2023-02-07T12:43:39.117Z,60.12
2023-02-07T12:44:39.960Z,60.43
2023-02-07T12:45:41.147Z,60.64
2023-02-07T12:46:41.615Z,60.64
2023-02-07T12:47:42.440Z,61.16
2023-02-07T12:48:43.268Z,61.16
2023-02-07T12:49:44.099Z,61.27
2023-02-07T12:50:44.940Z,60.75
2023-02-07T12:51:45.746Z,60.53
2023-02-07T12:52:46.577Z,60.85
2023-02-07T12:53:47.397Z,61.37
2023-02-07T12:54:48.234Z,61.37
2023-02-07T12:55:49.087Z,61.47
2023-02-07T12:56:49.898Z,61.16
2023-02-07T12:57:50.731Z,61.69
2023-02-07T12:58:51.560Z,62.00
2023-02-07T12:59:52.390Z,61.79
2023-02-07T13:00:53.325Z,61.58
2023-02-07T13:01:54.169Z,62.10
2023-02-07T13:02:54.965Z,62.41
2023-02-07T13:03:55.790Z,61.47